Arapaho — WCX9424 — position and weather

sailwx.info

Track history (hours):
 
Tides and Currents Weather Stations Pressure Air Temp Water Temp Dewpoint Dewpoint Depression Visibility Wind Speed Wind Dir Waves Ship Positions

Arapaho

Owner: SAUSE BROTHERS OCEAN TOWING CO INC, LONG BEACH, CA. More information available from US FCC via Universal Licensing System and Coast Guard Vessel Documentation Center.

Last reported at 2017-Aug-19 00:33 UTC. Time now 2017-Aug-22 03:31 UTC.
Position N 33°46' W 118°13'.

Length 18 m; draft 2.5 m.

Type: Tug. MMSI: 367004270.

Date/timePositionNaut miles runAvg speedWind from/ knotsBaromVisibWave heightAir tempDewpointWater temp
2017-Aug-19 00:33N 33°46' W 118°13'0 0.0
2017-Aug-19 00:30N 33°46' W 118°13'0 0.0
2017-Aug-19 00:00N 33°46' W 118°13'0 0.5
2017-Aug-18 23:30N 33°46' W 118°13'2 3.2
2017-Aug-18 23:00N 33°45' W 118°12'3 6.4
2017-Aug-18 22:30N 33°44' W 118°08'0 0.4
2017-Aug-18 22:00N 33°44' W 118°09'0 0.4
2017-Aug-18 21:30N 33°44' W 118°08'0 0.0
2017-Aug-18 21:00N 33°44' W 118°08'0 0.0
2017-Aug-18 20:30N 33°44' W 118°08'0 0.7
2017-Aug-18 20:00N 33°44' W 118°09'3 5.8
2017-Aug-18 19:30N 33°45' W 118°12'0 0.0
2017-Aug-18 19:00N 33°45' W 118°12'1 1.0
2017-Aug-18 18:30N 33°44' W 118°12'3 6.3
2017-Aug-18 18:00N 33°44' W 118°08'0 0.0
2017-Aug-18 17:30N 33°44' W 118°08'0 0.0
2017-Aug-18 17:00N 33°44' W 118°08'0 0.0
2017-Aug-18 16:29N 33°44' W 118°08'0 0.0
2017-Aug-18 16:00N 33°44' W 118°08'0 0.6
2017-Aug-18 15:30N 33°45' W 118°09'3 6.1
2017-Aug-18 15:00N 33°44' W 118°12'0 0.7
2017-Aug-18 14:27N 33°45' W 118°12'2 1.7
2017-Aug-18 13:30N 33°46' W 118°13'0 0.1
2017-Aug-18 13:00N 33°46' W 118°13'0 0.0
2017-Aug-18 12:30N 33°46' W 118°13'0 0.0
2017-Aug-18 12:00N 33°46' W 118°13'0 0.0
2017-Aug-18 11:30N 33°46' W 118°13'0 0.0
2017-Aug-18 11:00N 33°46' W 118°13'0 0.0
2017-Aug-18 10:30N 33°46' W 118°13'0 0.0
2017-Aug-18 10:00N 33°46' W 118°13'0 0.0
2017-Aug-18 09:29N 33°46' W 118°13'0 0.0
2017-Aug-18 09:00N 33°46' W 118°13'0 0.0
2017-Aug-18 08:30N 33°46' W 118°13'0 0.0
2017-Aug-18 08:00N 33°46' W 118°13'0 0.0
2017-Aug-18 07:30N 33°46' W 118°13'0 0.0
2017-Aug-18 07:00N 33°46' W 118°13'0 0.0
2017-Aug-18 06:30N 33°46' W 118°13'0 0.0
2017-Aug-18 06:00N 33°46' W 118°13'0 0.0
2017-Aug-18 05:30N 33°46' W 118°13'0 0.0
2017-Aug-18 05:00N 33°46' W 118°13'0 0.0
2017-Aug-18 04:30N 33°46' W 118°13'0 0.0
2017-Aug-18 04:00N 33°46' W 118°13'0 0.0
2017-Aug-18 03:30N 33°46' W 118°13'0 0.0
2017-Aug-18 03:00N 33°46' W 118°13'0 0.0
2017-Aug-18 02:30N 33°46' W 118°13'0 0.0
2017-Aug-18 02:00N 33°46' W 118°13'0 0.0
2017-Aug-18 01:30N 33°46' W 118°13'0 0.0
2017-Aug-18 01:00N 33°46' W 118°13'0 0.0
2017-Aug-18 00:30N 33°46' W 118°13'0 0.0
2017-Aug-18 00:00N 33°46' W 118°13'0 0.0
2017-Aug-17 23:30N 33°46' W 118°13'0 0.0
2017-Aug-17 23:00N 33°46' W 118°13'0 0.0
2017-Aug-17 22:30N 33°46' W 118°13'0 0.0
2017-Aug-17 22:00N 33°46' W 118°13'0 0.8
2017-Aug-17 21:30N 33°46' W 118°13'3 6.3
2017-Aug-17 21:00N 33°43' W 118°16'1 1.6
2017-Aug-17 20:30N 33°44' W 118°16'0 0.0
2017-Aug-17 20:00N 33°44' W 118°16'0 0.0
2017-Aug-17 19:30N 33°44' W 118°16'1 2.1
2017-Aug-17 18:59N 33°43' W 118°16'2 4.1
2017-Aug-17 18:30N 33°45' W 118°16'1 1.6
2017-Aug-17 17:57N 33°46' W 118°16'0 0.5
2017-Aug-17 17:30N 33°46' W 118°16'0 0.4
2017-Aug-17 17:00N 33°46' W 118°16'2 4.3
2017-Aug-17 16:29N 33°46' W 118°13'0 0.0
2017-Aug-17 16:00N 33°46' W 118°13'0 0.0
2017-Aug-17 15:30N 33°46' W 118°13'0 0.0
2017-Aug-17 14:55N 33°46' W 118°13'0 0.0
2017-Aug-17 14:29N 33°46' W 118°13'0 0.0
2017-Aug-17 14:00N 33°46' W 118°13'0 0.0
2017-Aug-17 13:30N 33°46' W 118°13'0 0.0
2017-Aug-17 12:58N 33°46' W 118°13'0 0.0
2017-Aug-17 12:30N 33°46' W 118°13'0 0.0
2017-Aug-17 12:00N 33°46' W 118°13'0 0.0
2017-Aug-17 11:22N 33°46' W 118°13'0 0.0
2017-Aug-17 11:00N 33°46' W 118°13'0 0.0
2017-Aug-17 10:30N 33°46' W 118°13'0 0.0
2017-Aug-17 10:00N 33°46' W 118°13'0 0.0
2017-Aug-17 09:30N 33°46' W 118°13'0 0.0
2017-Aug-17 09:00N 33°46' W 118°13'0 0.0
2017-Aug-17 08:30N 33°46' W 118°13'0 0.0
2017-Aug-17 08:00N 33°46' W 118°13'0 0.0
2017-Aug-17 07:30N 33°46' W 118°13'0 0.0
2017-Aug-17 07:00N 33°46' W 118°13'0 0.0
2017-Aug-17 06:29N 33°46' W 118°13'0 0.0
2017-Aug-17 05:56N 33°46' W 118°13'0 0.0
2017-Aug-17 05:25N 33°46' W 118°13'0 0.0
2017-Aug-17 04:59N 33°46' W 118°13'0 0.0
2017-Aug-17 04:10N 33°46' W 118°13'0 0.0
2017-Aug-17 04:00N 33°46' W 118°13'0 0.0
2017-Aug-17 03:29N 33°46' W 118°13'0 0.0
2017-Aug-17 03:00N 33°46' W 118°13'0 0.0
2017-Aug-17 02:30N 33°46' W 118°13'0 0.0
2017-Aug-17 02:00N 33°46' W 118°13'0 0.0
2017-Aug-17 01:30N 33°46' W 118°13'0 0.0
2017-Aug-17 01:00N 33°46' W 118°13'0 0.0
2017-Aug-17 00:30N 33°46' W 118°13'0 0.0
2017-Aug-17 00:00N 33°46' W 118°13'0 0.0
2017-Aug-16 23:27N 33°46' W 118°13'0 0.0
2017-Aug-16 23:00N 33°46' W 118°13'0 0.0
2017-Aug-16 22:30N 33°46' W 118°13'0 0.0
2017-Aug-16 22:00N 33°46' W 118°13'0 0.0
2017-Aug-16 21:30N 33°46' W 118°13'0 0.0
2017-Aug-16 20:59N 33°46' W 118°13'0 0.0
2017-Aug-16 20:29N 33°46' W 118°13'0 0.0
2017-Aug-16 20:00N 33°46' W 118°13'0 0.0
2017-Aug-16 19:29N 33°46' W 118°13'0 0.0
2017-Aug-16 19:00N 33°46' W 118°13'0 0.0
2017-Aug-16 18:29N 33°46' W 118°13'0 0.0
2017-Aug-16 18:00N 33°46' W 118°13'0 0.0
2017-Aug-16 17:30N 33°46' W 118°13'0 0.1
2017-Aug-16 16:59N 33°46' W 118°13'0 0.0
2017-Aug-16 16:30N 33°46' W 118°13'0 0.0
2017-Aug-16 16:00N 33°46' W 118°13'0 0.0
2017-Aug-16 15:21N 33°46' W 118°13'0 0.0
2017-Aug-16 15:00N 33°46' W 118°13'0 0.1
2017-Aug-16 14:29N 33°46' W 118°13'0 0.0
2017-Aug-16 14:00N 33°46' W 118°13'0 0.0
2017-Aug-16 13:30N 33°46' W 118°13'0 0.0
2017-Aug-16 13:00N 33°46' W 118°13'0 0.0
2017-Aug-16 12:30N 33°46' W 118°13'0 0.0
2017-Aug-16 12:00N 33°46' W 118°13'0 0.0
2017-Aug-16 11:30N 33°46' W 118°13'0 0.0
2017-Aug-16 11:00N 33°46' W 118°13'0 0.0
2017-Aug-16 10:30N 33°46' W 118°13'0 0.0
2017-Aug-16 09:59N 33°46' W 118°13'0 0.0
2017-Aug-16 09:30N 33°46' W 118°13'0 0.0
2017-Aug-16 05:59N 33°46' W 118°13'0 0.0
2017-Aug-16 05:30N 33°46' W 118°13'0 0.0
2017-Aug-16 04:57N 33°46' W 118°13'0 0.0
2017-Aug-16 04:30N 33°46' W 118°13'0 0.0
2017-Aug-16 04:00N 33°46' W 118°13'0 0.0
2017-Aug-16 03:30N 33°46' W 118°13'0 0.0
2017-Aug-16 03:00N 33°46' W 118°13'0 0.0
2017-Aug-16 02:30N 33°46' W 118°13'0 0.0
2017-Aug-16 02:00N 33°46' W 118°13'0 0.0
2017-Aug-16 01:30N 33°46' W 118°13'0 0.0
2017-Aug-16 01:00N 33°46' W 118°13'0 0.0
2017-Aug-16 00:30N 33°46' W 118°13'0 0.0
2017-Aug-15 23:58N 33°46' W 118°13'0 0.0
2017-Aug-15 23:30N 33°46' W 118°13'0 0.0
2017-Aug-15 23:00N 33°46' W 118°13'0 0.0
2017-Aug-15 22:30N 33°46' W 118°13'0 0.0
2017-Aug-15 22:00N 33°46' W 118°13'0 0.0
2017-Aug-15 21:30N 33°46' W 118°13'0 0.0
2017-Aug-15 20:59N 33°46' W 118°13'0 0.0
2017-Aug-15 20:29N 33°46' W 118°13'0 0.0
2017-Aug-15 20:00N 33°46' W 118°13'0 0.0
2017-Aug-15 19:30N 33°46' W 118°13'0 0.0
2017-Aug-15 19:00N 33°46' W 118°13'0 0.0
2017-Aug-15 18:29N 33°46' W 118°13'0 0.0
2017-Aug-15 18:00N 33°46' W 118°13'0 0.0
2017-Aug-15 17:30N 33°46' W 118°13'0 0.0
2017-Aug-15 16:58N 33°46' W 118°13'0 0.0
2017-Aug-15 16:29N 33°46' W 118°13'0 0.0
2017-Aug-15 16:00N 33°46' W 118°13'0 0.0
2017-Aug-15 15:29N 33°46' W 118°13'0 0.0
2017-Aug-15 14:57N 33°46' W 118°13'0 0.0
2017-Aug-15 14:29N 33°46' W 118°13'0 0.0
2017-Aug-15 13:59N 33°46' W 118°13'0 0.0
2017-Aug-15 13:28N 33°46' W 118°13'0 0.0
2017-Aug-15 13:00N 33°46' W 118°13'0 0.0
2017-Aug-15 12:30N 33°46' W 118°13'0 0.0
2017-Aug-15 11:58N 33°46' W 118°13'0 0.0
2017-Aug-15 11:27N 33°46' W 118°13'0 0.0
2017-Aug-15 11:00N 33°46' W 118°13'0 0.0
2017-Aug-15 10:30N 33°46' W 118°13'0 0.0
2017-Aug-15 09:58N 33°46' W 118°13'0 0.0
2017-Aug-15 09:29N 33°46' W 118°13'0 0.0
2017-Aug-15 09:00N 33°46' W 118°13'0 0.0
2017-Aug-15 08:30N 33°46' W 118°13'0 0.0
2017-Aug-15 08:00N 33°46' W 118°13'0 0.0
2017-Aug-15 07:30N 33°46' W 118°13'0 0.0
2017-Aug-15 06:59N 33°46' W 118°13'0 0.0
2017-Aug-15 06:28N 33°46' W 118°13'0 0.0
2017-Aug-15 05:59N 33°46' W 118°13'0 0.0
2017-Aug-15 05:30N 33°46' W 118°13'0 0.0
2017-Aug-15 04:59N 33°46' W 118°13'0 0.0
2017-Aug-15 04:30N 33°46' W 118°13'0 0.0
2017-Aug-15 04:00N 33°46' W 118°13'0 0.0
2017-Aug-15 03:27N 33°46' W 118°13'0 0.0
2017-Aug-15 03:00N 33°46' W 118°13'0 0.0
2017-Aug-15 02:30N 33°46' W 118°13'0 0.0
2017-Aug-15 02:00N 33°46' W 118°13'0 0.0
2017-Aug-15 01:30N 33°46' W 118°13'0 0.0
2017-Aug-15 01:00N 33°46' W 118°13'0 0.0
2017-Aug-15 00:30N 33°46' W 118°13'0 0.0
2017-Aug-15 00:00N 33°46' W 118°13'0 0.0
2017-Aug-14 23:30N 33°46' W 118°13'0 0.0
2017-Aug-14 23:00N 33°46' W 118°13'0 0.0
2017-Aug-14 22:30N 33°46' W 118°13'0 0.0
2017-Aug-14 22:00N 33°46' W 118°13'0 0.0
2017-Aug-14 21:30N 33°46' W 118°13'0 0.0
2017-Aug-14 21:00N 33°46' W 118°13'0 0.0
2017-Aug-14 20:30N 33°46' W 118°13'0 0.0
2017-Aug-14 20:00N 33°46' W 118°13'0 0.0
2017-Aug-14 19:30N 33°46' W 118°13'0 0.0
2017-Aug-14 19:00N 33°46' W 118°13'0 0.0
2017-Aug-14 18:30N 33°46' W 118°13'0 0.0
2017-Aug-14 18:00N 33°46' W 118°13'0 0.0
2017-Aug-14 17:28N 33°46' W 118°13'0 0.0
2017-Aug-14 17:00N 33°46' W 118°13'0 0.0
2017-Aug-14 16:28N 33°46' W 118°13'0 0.0
2017-Aug-14 16:00N 33°46' W 118°13'0 0.0
2017-Aug-14 15:30N 33°46' W 118°13'0 0.0
2017-Aug-14 15:00N 33°46' W 118°13'0 0.0
2017-Aug-14 14:29N 33°46' W 118°13'0 0.0
2017-Aug-14 14:00N 33°46' W 118°13'0 0.0
2017-Aug-14 13:30N 33°46' W 118°13'0 0.0
2017-Aug-14 13:00N 33°46' W 118°13'0 0.0
2017-Aug-14 12:30N 33°46' W 118°13'0 0.0
2017-Aug-14 12:00N 33°46' W 118°13'0 0.0
2017-Aug-14 11:30N 33°46' W 118°13'0 0.0
2017-Aug-14 11:00N 33°46' W 118°13'0 0.0
2017-Aug-14 10:29N 33°46' W 118°13'0 0.0
2017-Aug-14 10:00N 33°46' W 118°13'0 0.0
2017-Aug-14 09:30N 33°46' W 118°13'0 0.0
2017-Aug-14 09:00N 33°46' W 118°13'0 0.0
2017-Aug-14 08:30N 33°46' W 118°13'0 0.0
2017-Aug-14 08:00N 33°46' W 118°13'0 0.0
2017-Aug-14 07:29N 33°46' W 118°13'0 0.0
2017-Aug-14 07:00N 33°46' W 118°13'0 0.0
2017-Aug-14 06:30N 33°46' W 118°13'0 0.0
2017-Aug-14 06:00N 33°46' W 118°13'0 0.0
2017-Aug-14 05:30N 33°46' W 118°13'0 0.0
2017-Aug-14 05:00N 33°46' W 118°13'0 0.0
2017-Aug-14 04:30N 33°46' W 118°13'0 0.0
2017-Aug-14 03:59N 33°46' W 118°13'0 0.0
2017-Aug-14 03:29N 33°46' W 118°13'0 0.0
2017-Aug-14 03:00N 33°46' W 118°13'0 0.0
2017-Aug-14 02:30N 33°46' W 118°13'0 0.0
2017-Aug-14 02:00N 33°46' W 118°13'0 0.0
2017-Aug-14 01:30N 33°46' W 118°13'0 0.0
2017-Aug-14 01:00N 33°46' W 118°13'0 0.0
2017-Aug-14 00:30N 33°46' W 118°13'0 0.0
2017-Aug-14 00:00N 33°46' W 118°13'0 0.0
2017-Aug-13 23:30N 33°46' W 118°13'0 0.0
2017-Aug-13 23:00N 33°46' W 118°13'0 0.0
2017-Aug-13 22:30N 33°46' W 118°13'0 0.0
2017-Aug-13 22:00N 33°46' W 118°13'0 0.0
2017-Aug-13 21:30N 33°46' W 118°13'0 0.0
2017-Aug-13 21:00N 33°46' W 118°13'0 0.0
2017-Aug-13 20:30N 33°46' W 118°13'0 0.0
2017-Aug-13 20:00N 33°46' W 118°13'0 0.0
2017-Aug-13 19:30N 33°46' W 118°13'0 0.0
2017-Aug-13 19:00N 33°46' W 118°13'0 0.0
2017-Aug-13 18:30N 33°46' W 118°13'0 0.0
2017-Aug-13 18:00N 33°46' W 118°13'0 0.0
2017-Aug-13 17:29N 33°46' W 118°13'0 0.0
2017-Aug-13 17:00N 33°46' W 118°13'0 0.0
2017-Aug-13 16:30N 33°46' W 118°13'0 0.0
2017-Aug-13 16:00N 33°46' W 118°13'0 0.0
2017-Aug-13 15:30N 33°46' W 118°13'0 0.0
2017-Aug-13 15:00N 33°46' W 118°13'0 0.0
2017-Aug-13 14:28N 33°46' W 118°13'0 0.0
2017-Aug-13 14:00N 33°46' W 118°13'0 0.0
2017-Aug-13 13:30N 33°46' W 118°13'0 0.0
2017-Aug-13 13:00N 33°46' W 118°13'0 0.0
2017-Aug-13 12:30N 33°46' W 118°13'0 0.0
2017-Aug-13 12:00N 33°46' W 118°13'0 0.0
2017-Aug-13 11:29N 33°46' W 118°13'0 0.0
2017-Aug-13 11:00N 33°46' W 118°13'0 0.0
2017-Aug-13 10:30N 33°46' W 118°13'0 0.0
2017-Aug-13 10:00N 33°46' W 118°13'0 0.0
2017-Aug-13 09:30N 33°46' W 118°13'0 0.0
2017-Aug-13 09:00N 33°46' W 118°13'0 0.0
2017-Aug-13 08:30N 33°46' W 118°13'0 0.0
2017-Aug-13 08:00N 33°46' W 118°13'0 0.0
2017-Aug-13 07:30N 33°46' W 118°13'0 0.0
2017-Aug-13 07:00N 33°46' W 118°13'0 0.0
2017-Aug-13 06:30N 33°46' W 118°13'0 0.0
2017-Aug-13 06:00N 33°46' W 118°13'0 0.0
2017-Aug-13 05:30N 33°46' W 118°13'0 0.0
2017-Aug-13 05:00N 33°46' W 118°13'0 0.0
2017-Aug-13 04:30N 33°46' W 118°13'0 0.0
2017-Aug-13 04:00N 33°46' W 118°13'0 0.0
2017-Aug-13 03:30N 33°46' W 118°13'0 0.0
2017-Aug-13 03:00N 33°46' W 118°13'0 0.0
2017-Aug-13 02:30N 33°46' W 118°13'0 0.0
2017-Aug-13 02:00N 33°46' W 118°13'0 0.0
2017-Aug-13 01:30N 33°46' W 118°13'0 0.0
2017-Aug-13 01:00N 33°46' W 118°13'0 0.0
2017-Aug-13 00:30N 33°46' W 118°13'0 0.0
2017-Aug-13 00:00N 33°46' W 118°13'1 1.1
2017-Aug-12 23:30N 33°45' W 118°13'1 1.9
2017-Aug-12 23:00N 33°45' W 118°13'1 1.6
2017-Aug-12 22:30N 33°45' W 118°13'1 2.2
2017-Aug-12 22:00N 33°44' W 118°13'1 2.4
2017-Aug-12 21:30N 33°43' W 118°11'0 0.4
2017-Aug-12 21:00N 33°44' W 118°11'2 3.4
2017-Aug-12 20:30N 33°45' W 118°13'1 2.5
2017-Aug-12 20:00N 33°46' W 118°13'0 0.0
2017-Aug-12 19:30N 33°46' W 118°13'0 0.0
2017-Aug-12 19:00N 33°46' W 118°13'0 0.0
2017-Aug-12 18:30N 33°46' W 118°13'0 0.0
2017-Aug-12 18:00N 33°46' W 118°13'0 0.0
2017-Aug-12 17:30N 33°46' W 118°13'0 0.0
2017-Aug-12 17:00N 33°46' W 118°13'0 0.0
2017-Aug-12 16:30N 33°46' W 118°13'0 0.0
2017-Aug-12 16:00N 33°46' W 118°13'0 0.0
2017-Aug-12 15:29N 33°46' W 118°13'0 0.0
2017-Aug-12 15:00N 33°46' W 118°13'0 0.0
2017-Aug-12 14:29N 33°46' W 118°13'0 0.0
2017-Aug-12 14:00N 33°46' W 118°13'0 0.0
2017-Aug-12 13:30N 33°46' W 118°13'0 0.0
2017-Aug-12 13:00N 33°46' W 118°13'0 0.0
2017-Aug-12 12:30N 33°46' W 118°13'0 0.0
2017-Aug-12 12:00N 33°46' W 118°13'0 0.0
2017-Aug-12 11:30N 33°46' W 118°13'0 0.0
2017-Aug-12 11:00N 33°46' W 118°13'0 0.0
2017-Aug-12 10:30N 33°46' W 118°13'0 0.0
2017-Aug-12 10:00N 33°46' W 118°13'0 0.0
2017-Aug-12 09:30N 33°46' W 118°13'0 0.0
2017-Aug-12 09:00N 33°46' W 118°13'0 0.0
2017-Aug-12 08:29N 33°46' W 118°13'0 0.0
2017-Aug-12 08:00N 33°46' W 118°13'0 0.0
2017-Aug-12 07:30N 33°46' W 118°13'0 0.0
2017-Aug-12 07:00N 33°46' W 118°13'0 0.0
2017-Aug-12 06:30N 33°46' W 118°13'0 0.0
2017-Aug-12 06:00N 33°46' W 118°13'0 0.0
2017-Aug-12 05:30N 33°46' W 118°13'0 0.0
2017-Aug-12 05:00N 33°46' W 118°13'0 0.0
2017-Aug-12 04:30N 33°46' W 118°13'0 0.0
2017-Aug-12 04:00N 33°46' W 118°13'0 0.0
2017-Aug-12 03:30N 33°46' W 118°13'0 0.0
2017-Aug-12 03:00N 33°46' W 118°13'0 0.0
2017-Aug-12 02:30N 33°46' W 118°13'0 0.0
2017-Aug-12 02:00N 33°46' W 118°13'0 0.0
2017-Aug-12 01:30N 33°46' W 118°13'0 0.0
2017-Aug-12 01:00N 33°46' W 118°13'0 0.0
2017-Aug-12 00:30N 33°46' W 118°13'0 0.0
2017-Aug-12 00:00N 33°46' W 118°13'0 0.0
2017-Aug-11 23:30N 33°46' W 118°13'0 0.0
2017-Aug-11 23:00N 33°46' W 118°13'0 0.0
2017-Aug-11 22:30N 33°46' W 118°13'0 0.0
2017-Aug-11 22:00N 33°46' W 118°13'0 0.0
2017-Aug-11 21:30N 33°46' W 118°13'0 0.0
2017-Aug-11 21:00N 33°46' W 118°13'0 0.0
2017-Aug-11 20:30N 33°46' W 118°13'0 0.0
2017-Aug-11 20:00N 33°46' W 118°13'0 0.0
2017-Aug-11 19:30N 33°46' W 118°13'0 0.0
2017-Aug-11 19:00N 33°46' W 118°13'0 0.0
2017-Aug-11 18:30N 33°46' W 118°13'0 0.0
2017-Aug-11 18:00N 33°46' W 118°13'0 0.0
2017-Aug-11 17:30N 33°46' W 118°13'0 0.0
2017-Aug-11 17:00N 33°46' W 118°13'0 0.0
2017-Aug-11 16:30N 33°46' W 118°13'0 0.0
2017-Aug-11 16:00N 33°46' W 118°13'0 0.0
2017-Aug-11 15:30N 33°46' W 118°13'0 0.0
2017-Aug-11 15:00N 33°46' W 118°13'0 0.0
2017-Aug-11 14:30N 33°46' W 118°13'0 0.0
2017-Aug-11 13:30N 33°46' W 118°13'0 0.0
2017-Aug-11 13:00N 33°46' W 118°13'0 0.0
2017-Aug-11 12:30N 33°46' W 118°13'0 0.0
2017-Aug-11 12:00N 33°46' W 118°13'0 0.0
2017-Aug-11 11:30N 33°46' W 118°13'0 0.0
2017-Aug-11 11:00N 33°46' W 118°13'0 0.0
2017-Aug-11 10:30N 33°46' W 118°13'0 0.0
2017-Aug-11 10:00N 33°46' W 118°13'0 0.0
2017-Aug-11 09:30N 33°46' W 118°13'0 0.0
2017-Aug-11 08:59N 33°46' W 118°13'0 0.0
2017-Aug-11 08:30N 33°46' W 118°13'0 0.0
2017-Aug-11 08:00N 33°46' W 118°13'0 0.0
2017-Aug-11 07:30N 33°46' W 118°13'0 0.0
2017-Aug-11 07:00N 33°46' W 118°13'0 0.0
2017-Aug-11 06:30N 33°46' W 118°13'0 0.0
2017-Aug-11 06:00N 33°46' W 118°13'0 0.0
2017-Aug-11 05:30N 33°46' W 118°13'0 0.0
2017-Aug-11 05:00N 33°46' W 118°13'0 0.0
2017-Aug-11 04:30N 33°46' W 118°13'0 0.0
2017-Aug-11 04:00N 33°46' W 118°13'0 0.0
2017-Aug-11 03:30N 33°46' W 118°13'0 0.0
2017-Aug-11 03:00N 33°46' W 118°13'0 0.0
2017-Aug-11 02:30N 33°46' W 118°13'0 0.0
2017-Aug-11 02:00N 33°46' W 118°13'0 0.0
2017-Aug-11 01:30N 33°46' W 118°13'0 0.0
2017-Aug-11 01:00N 33°46' W 118°13'0 0.0
2017-Aug-11 00:30N 33°46' W 118°13'0 0.0
2017-Aug-11 00:00N 33°46' W 118°13'0 0.0
2017-Aug-10 23:30N 33°46' W 118°13'0 0.0
2017-Aug-10 23:00N 33°46' W 118°13'0 0.0
2017-Aug-10 22:30N 33°46' W 118°13'0 0.0
2017-Aug-10 22:00N 33°46' W 118°13'0 0.0
2017-Aug-10 21:30N 33°46' W 118°13'0 0.0
2017-Aug-10 21:00N 33°46' W 118°13'0 0.0
2017-Aug-10 20:30N 33°46' W 118°13'0 0.0
2017-Aug-10 20:00N 33°46' W 118°13'0 0.0
2017-Aug-10 19:30N 33°46' W 118°13'0 0.0
2017-Aug-10 19:00N 33°46' W 118°13'0 0.0
2017-Aug-10 18:30N 33°46' W 118°13'0 0.0
2017-Aug-10 18:00N 33°46' W 118°13'0 0.0
2017-Aug-10 17:30N 33°46' W 118°13'0 0.0
2017-Aug-10 17:00N 33°46' W 118°13'0 0.0
2017-Aug-10 16:30N 33°46' W 118°13'0 0.0
2017-Aug-10 16:00N 33°46' W 118°13'0 0.0
2017-Aug-10 15:30N 33°46' W 118°13'0 0.0
2017-Aug-10 15:00N 33°46' W 118°13'0 0.0
2017-Aug-10 14:30N 33°46' W 118°13'0 0.0
2017-Aug-10 14:00N 33°46' W 118°13'0 0.0
2017-Aug-10 13:30N 33°46' W 118°13'0 0.0
2017-Aug-10 13:00N 33°46' W 118°13'0 0.0
2017-Aug-10 12:30N 33°46' W 118°13'0 0.0
2017-Aug-10 12:00N 33°46' W 118°13'0 0.0
2017-Aug-10 11:30N 33°46' W 118°13'0 0.0
2017-Aug-10 11:00N 33°46' W 118°13'0 0.0
2017-Aug-10 10:30N 33°46' W 118°13'0 0.0
2017-Aug-10 09:59N 33°46' W 118°13'0 0.0
2017-Aug-10 09:30N 33°46' W 118°13'0 0.0
2017-Aug-10 09:00N 33°46' W 118°13'0 0.0
2017-Aug-10 08:30N 33°46' W 118°13'0 0.0
2017-Aug-10 08:00N 33°46' W 118°13'0 0.0
2017-Aug-10 07:30N 33°46' W 118°13'0 0.0
2017-Aug-10 07:00N 33°46' W 118°13'0 0.0
2017-Aug-10 06:30N 33°46' W 118°13'0 0.0
2017-Aug-10 06:00N 33°46' W 118°13'0 0.0
2017-Aug-10 05:30N 33°46' W 118°13'0 0.0
2017-Aug-10 05:00N 33°46' W 118°13'0 0.0
2017-Aug-10 04:30N 33°46' W 118°13'0 0.0
2017-Aug-10 04:00N 33°46' W 118°13'0 0.0
2017-Aug-10 03:30N 33°46' W 118°13'0 0.0
2017-Aug-10 03:00N 33°46' W 118°13'0 0.0
2017-Aug-10 02:30N 33°46' W 118°13'0 0.0
2017-Aug-10 02:00N 33°46' W 118°13'0 0.0
2017-Aug-10 01:30N 33°46' W 118°13'0 0.0
2017-Aug-10 01:00N 33°46' W 118°13'0 0.0
2017-Aug-10 00:30N 33°46' W 118°13'0 0.0
2017-Aug-10 00:00N 33°46' W 118°13'0 0.0
2017-Aug-09 23:30N 33°46' W 118°13'0 0.0
2017-Aug-09 23:00N 33°46' W 118°13'0 0.0
2017-Aug-09 22:30N 33°46' W 118°13'0 0.0
2017-Aug-09 22:00N 33°46' W 118°13'0 0.0
2017-Aug-09 21:30N 33°46' W 118°13'0 0.0
2017-Aug-09 21:00N 33°46' W 118°13'0 0.0
2017-Aug-09 20:30N 33°46' W 118°13'0 0.0
2017-Aug-09 20:00N 33°46' W 118°13'0 0.0
2017-Aug-09 19:30N 33°46' W 118°13'0 0.0
2017-Aug-09 19:00N 33°46' W 118°13'0 0.0
2017-Aug-09 18:30N 33°46' W 118°13'0 0.0
2017-Aug-09 18:00N 33°46' W 118°13'0 0.0
2017-Aug-09 17:30N 33°46' W 118°13'0 0.3
2017-Aug-09 16:59N 33°46' W 118°13'3 6.7
2017-Aug-09 16:30N 33°44' W 118°10'1 1.0
2017-Aug-09 15:59N 33°44' W 118°11'2 4.9
2017-Aug-09 15:30N 33°45' W 118°13'1 2.1
2017-Aug-09 15:00N 33°46' W 118°13'0 0.0
2017-Aug-09 14:30N 33°46' W 118°13'0 0.0
2017-Aug-09 14:00N 33°46' W 118°13'0 0.0
2017-Aug-09 13:30N 33°46' W 118°13'0 0.0
2017-Aug-09 13:00N 33°46' W 118°13'0 0.0
2017-Aug-09 12:28N 33°46' W 118°13'0 0.0
2017-Aug-09 12:00N 33°46' W 118°13'0 0.0
2017-Aug-09 11:30N 33°46' W 118°13'0 0.0
2017-Aug-09 11:00N 33°46' W 118°13'0 0.0
2017-Aug-09 10:30N 33°46' W 118°13'0 0.0
2017-Aug-09 10:00N 33°46' W 118°13'0 0.0
2017-Aug-09 09:30N 33°46' W 118°13'0 0.0
2017-Aug-09 09:00N 33°46' W 118°13'0 0.0
2017-Aug-09 08:30N 33°46' W 118°13'0 0.0
2017-Aug-09 08:00N 33°46' W 118°13'0 0.0
2017-Aug-09 07:30N 33°46' W 118°13'0 0.0
2017-Aug-09 07:00N 33°46' W 118°13'0 0.0
2017-Aug-09 06:30N 33°46' W 118°13'0 0.0
2017-Aug-09 06:00N 33°46' W 118°13'0 0.0
2017-Aug-09 05:30N 33°46' W 118°13'0 0.0
2017-Aug-09 05:00N 33°46' W 118°13'0 0.0
2017-Aug-09 04:30N 33°46' W 118°13'0 0.0
2017-Aug-09 04:00N 33°46' W 118°13'0 0.0
2017-Aug-09 03:30N 33°46' W 118°13'0 0.0
2017-Aug-09 03:00N 33°46' W 118°13'0 0.0
2017-Aug-09 02:30N 33°46' W 118°13'0 0.0
2017-Aug-09 02:00N 33°46' W 118°13'0 0.0
2017-Aug-09 01:30N 33°46' W 118°13'0 0.0
2017-Aug-09 01:00N 33°46' W 118°13'  
Track history (hours):
 
Tides and Currents Weather Stations Pressure Air Temp Water Temp Dewpoint Dewpoint Depression Visibility Wind Speed Wind Dir Waves Ship Positions

Arapaho

Owner: SAUSE BROTHERS OCEAN TOWING CO INC, LONG BEACH, CA. More information available from US FCC via Universal Licensing System and Coast Guard Vessel Documentation Center.

Last reported at 2017-Aug-19 00:33 UTC. Time now 2017-Aug-22 03:31 UTC.
Position N 33°46' W 118°13'.

Length 18 m; draft 2.5 m.

Type: Tug. MMSI: 367004270.

Date/timePositionNaut miles runAvg speedWind from/ knotsBaromVisibWave heightAir tempDewpointWater temp
2017-Aug-19 00:33N 33°46' W 118°13'0 0.0
2017-Aug-19 00:30N 33°46' W 118°13'0 0.0
2017-Aug-19 00:00N 33°46' W 118°13'0 0.5
2017-Aug-18 23:30N 33°46' W 118°13'2 3.2
2017-Aug-18 23:00N 33°45' W 118°12'3 6.4
2017-Aug-18 22:30N 33°44' W 118°08'0 0.4
2017-Aug-18 22:00N 33°44' W 118°09'0 0.4
2017-Aug-18 21:30N 33°44' W 118°08'0 0.0
2017-Aug-18 21:00N 33°44' W 118°08'0 0.0
2017-Aug-18 20:30N 33°44' W 118°08'0 0.7
2017-Aug-18 20:00N 33°44' W 118°09'3 5.8
2017-Aug-18 19:30N 33°45' W 118°12'0 0.0
2017-Aug-18 19:00N 33°45' W 118°12'1 1.0
2017-Aug-18 18:30N 33°44' W 118°12'3 6.3
2017-Aug-18 18:00N 33°44' W 118°08'0 0.0
2017-Aug-18 17:30N 33°44' W 118°08'0 0.0
2017-Aug-18 17:00N 33°44' W 118°08'0 0.0
2017-Aug-18 16:29N 33°44' W 118°08'0 0.0
2017-Aug-18 16:00N 33°44' W 118°08'0 0.6
2017-Aug-18 15:30N 33°45' W 118°09'3 6.1
2017-Aug-18 15:00N 33°44' W 118°12'0 0.7
2017-Aug-18 14:27N 33°45' W 118°12'2 1.7
2017-Aug-18 13:30N 33°46' W 118°13'0 0.1
2017-Aug-18 13:00N 33°46' W 118°13'0 0.0
2017-Aug-18 12:30N 33°46' W 118°13'0 0.0
2017-Aug-18 12:00N 33°46' W 118°13'0 0.0
2017-Aug-18 11:30N 33°46' W 118°13'0 0.0
2017-Aug-18 11:00N 33°46' W 118°13'0 0.0
2017-Aug-18 10:30N 33°46' W 118°13'0 0.0
2017-Aug-18 10:00N 33°46' W 118°13'0 0.0
2017-Aug-18 09:29N 33°46' W 118°13'0 0.0
2017-Aug-18 09:00N 33°46' W 118°13'0 0.0
2017-Aug-18 08:30N 33°46' W 118°13'0 0.0
2017-Aug-18 08:00N 33°46' W 118°13'0 0.0
2017-Aug-18 07:30N 33°46' W 118°13'0 0.0
2017-Aug-18 07:00N 33°46' W 118°13'0 0.0
2017-Aug-18 06:30N 33°46' W 118°13'0 0.0
2017-Aug-18 06:00N 33°46' W 118°13'0 0.0
2017-Aug-18 05:30N 33°46' W 118°13'0 0.0
2017-Aug-18 05:00N 33°46' W 118°13'0 0.0
2017-Aug-18 04:30N 33°46' W 118°13'0 0.0
2017-Aug-18 04:00N 33°46' W 118°13'0 0.0
2017-Aug-18 03:30N 33°46' W 118°13'0 0.0
2017-Aug-18 03:00N 33°46' W 118°13'0 0.0
2017-Aug-18 02:30N 33°46' W 118°13'0 0.0
2017-Aug-18 02:00N 33°46' W 118°13'0 0.0
2017-Aug-18 01:30N 33°46' W 118°13'0 0.0
2017-Aug-18 01:00N 33°46' W 118°13'0 0.0
2017-Aug-18 00:30N 33°46' W 118°13'0 0.0
2017-Aug-18 00:00N 33°46' W 118°13'0 0.0
2017-Aug-17 23:30N 33°46' W 118°13'0 0.0
2017-Aug-17 23:00N 33°46' W 118°13'0 0.0
2017-Aug-17 22:30N 33°46' W 118°13'0 0.0
2017-Aug-17 22:00N 33°46' W 118°13'0 0.8
2017-Aug-17 21:30N 33°46' W 118°13'3 6.3
2017-Aug-17 21:00N 33°43' W 118°16'1 1.6
2017-Aug-17 20:30N 33°44' W 118°16'0 0.0
2017-Aug-17 20:00N 33°44' W 118°16'0 0.0
2017-Aug-17 19:30N 33°44' W 118°16'1 2.1
2017-Aug-17 18:59N 33°43' W 118°16'2 4.1
2017-Aug-17 18:30N 33°45' W 118°16'1 1.6
2017-Aug-17 17:57N 33°46' W 118°16'0 0.5
2017-Aug-17 17:30N 33°46' W 118°16'0 0.4
2017-Aug-17 17:00N 33°46' W 118°16'2 4.3
2017-Aug-17 16:29N 33°46' W 118°13'0 0.0
2017-Aug-17 16:00N 33°46' W 118°13'0 0.0
2017-Aug-17 15:30N 33°46' W 118°13'0 0.0
2017-Aug-17 14:55N 33°46' W 118°13'0 0.0
2017-Aug-17 14:29N 33°46' W 118°13'0 0.0
2017-Aug-17 14:00N 33°46' W 118°13'0 0.0
2017-Aug-17 13:30N 33°46' W 118°13'0 0.0
2017-Aug-17 12:58N 33°46' W 118°13'0 0.0
2017-Aug-17 12:30N 33°46' W 118°13'0 0.0
2017-Aug-17 12:00N 33°46' W 118°13'0 0.0
2017-Aug-17 11:22N 33°46' W 118°13'0 0.0
2017-Aug-17 11:00N 33°46' W 118°13'0 0.0
2017-Aug-17 10:30N 33°46' W 118°13'0 0.0
2017-Aug-17 10:00N 33°46' W 118°13'0 0.0
2017-Aug-17 09:30N 33°46' W 118°13'0 0.0
2017-Aug-17 09:00N 33°46' W 118°13'0 0.0
2017-Aug-17 08:30N 33°46' W 118°13'0 0.0
2017-Aug-17 08:00N 33°46' W 118°13'0 0.0
2017-Aug-17 07:30N 33°46' W 118°13'0 0.0
2017-Aug-17 07:00N 33°46' W 118°13'0 0.0
2017-Aug-17 06:29N 33°46' W 118°13'0 0.0
2017-Aug-17 05:56N 33°46' W 118°13'0 0.0
2017-Aug-17 05:25N 33°46' W 118°13'0 0.0
2017-Aug-17 04:59N 33°46' W 118°13'0 0.0
2017-Aug-17 04:10N 33°46' W 118°13'0 0.0
2017-Aug-17 04:00N 33°46' W 118°13'0 0.0
2017-Aug-17 03:29N 33°46' W 118°13'0 0.0
2017-Aug-17 03:00N 33°46' W 118°13'0 0.0
2017-Aug-17 02:30N 33°46' W 118°13'0 0.0
2017-Aug-17 02:00N 33°46' W 118°13'0 0.0
2017-Aug-17 01:30N 33°46' W 118°13'0 0.0
2017-Aug-17 01:00N 33°46' W 118°13'0 0.0
2017-Aug-17 00:30N 33°46' W 118°13'0 0.0
2017-Aug-17 00:00N 33°46' W 118°13'0 0.0
2017-Aug-16 23:27N 33°46' W 118°13'0 0.0
2017-Aug-16 23:00N 33°46' W 118°13'0 0.0
2017-Aug-16 22:30N 33°46' W 118°13'0 0.0
2017-Aug-16 22:00N 33°46' W 118°13'0 0.0
2017-Aug-16 21:30N 33°46' W 118°13'0 0.0
2017-Aug-16 20:59N 33°46' W 118°13'0 0.0
2017-Aug-16 20:29N 33°46' W 118°13'0 0.0
2017-Aug-16 20:00N 33°46' W 118°13'0 0.0
2017-Aug-16 19:29N 33°46' W 118°13'0 0.0
2017-Aug-16 19:00N 33°46' W 118°13'0 0.0
2017-Aug-16 18:29N 33°46' W 118°13'0 0.0
2017-Aug-16 18:00N 33°46' W 118°13'0 0.0
2017-Aug-16 17:30N 33°46' W 118°13'0 0.1
2017-Aug-16 16:59N 33°46' W 118°13'0 0.0
2017-Aug-16 16:30N 33°46' W 118°13'0 0.0
2017-Aug-16 16:00N 33°46' W 118°13'0 0.0
2017-Aug-16 15:21N 33°46' W 118°13'0 0.0
2017-Aug-16 15:00N 33°46' W 118°13'0 0.1
2017-Aug-16 14:29N 33°46' W 118°13'0 0.0
2017-Aug-16 14:00N 33°46' W 118°13'0 0.0
2017-Aug-16 13:30N 33°46' W 118°13'0 0.0
2017-Aug-16 13:00N 33°46' W 118°13'0 0.0
2017-Aug-16 12:30N 33°46' W 118°13'0 0.0
2017-Aug-16 12:00N 33°46' W 118°13'0 0.0
2017-Aug-16 11:30N 33°46' W 118°13'0 0.0
2017-Aug-16 11:00N 33°46' W 118°13'0 0.0
2017-Aug-16 10:30N 33°46' W 118°13'0 0.0
2017-Aug-16 09:59N 33°46' W 118°13'0 0.0
2017-Aug-16 09:30N 33°46' W 118°13'0 0.0
2017-Aug-16 05:59N 33°46' W 118°13'0 0.0
2017-Aug-16 05:30N 33°46' W 118°13'0 0.0
2017-Aug-16 04:57N 33°46' W 118°13'0 0.0
2017-Aug-16 04:30N 33°46' W 118°13'0 0.0
2017-Aug-16 04:00N 33°46' W 118°13'0 0.0
2017-Aug-16 03:30N 33°46' W 118°13'0 0.0
2017-Aug-16 03:00N 33°46' W 118°13'0 0.0
2017-Aug-16 02:30N 33°46' W 118°13'0 0.0
2017-Aug-16 02:00N 33°46' W 118°13'0 0.0
2017-Aug-16 01:30N 33°46' W 118°13'0 0.0
2017-Aug-16 01:00N 33°46' W 118°13'0 0.0
2017-Aug-16 00:30N 33°46' W 118°13'0 0.0
2017-Aug-15 23:58N 33°46' W 118°13'0 0.0
2017-Aug-15 23:30N 33°46' W 118°13'0 0.0
2017-Aug-15 23:00N 33°46' W 118°13'0 0.0
2017-Aug-15 22:30N 33°46' W 118°13'0 0.0
2017-Aug-15 22:00N 33°46' W 118°13'0 0.0
2017-Aug-15 21:30N 33°46' W 118°13'0 0.0
2017-Aug-15 20:59N 33°46' W 118°13'0 0.0
2017-Aug-15 20:29N 33°46' W 118°13'0 0.0
2017-Aug-15 20:00N 33°46' W 118°13'0 0.0
2017-Aug-15 19:30N 33°46' W 118°13'0 0.0
2017-Aug-15 19:00N 33°46' W 118°13'0 0.0
2017-Aug-15 18:29N 33°46' W 118°13'0 0.0
2017-Aug-15 18:00N 33°46' W 118°13'0 0.0
2017-Aug-15 17:30N 33°46' W 118°13'0 0.0
2017-Aug-15 16:58N 33°46' W 118°13'0 0.0
2017-Aug-15 16:29N 33°46' W 118°13'0 0.0
2017-Aug-15 16:00N 33°46' W 118°13'0 0.0
2017-Aug-15 15:29N 33°46' W 118°13'0 0.0
2017-Aug-15 14:57N 33°46' W 118°13'0 0.0
2017-Aug-15 14:29N 33°46' W 118°13'0 0.0
2017-Aug-15 13:59N 33°46' W 118°13'0 0.0
2017-Aug-15 13:28N 33°46' W 118°13'0 0.0
2017-Aug-15 13:00N 33°46' W 118°13'0 0.0
2017-Aug-15 12:30N 33°46' W 118°13'0 0.0
2017-Aug-15 11:58N 33°46' W 118°13'0 0.0
2017-Aug-15 11:27N 33°46' W 118°13'0 0.0
2017-Aug-15 11:00N 33°46' W 118°13'0 0.0
2017-Aug-15 10:30N 33°46' W 118°13'0 0.0
2017-Aug-15 09:58N 33°46' W 118°13'0 0.0
2017-Aug-15 09:29N 33°46' W 118°13'0 0.0
2017-Aug-15 09:00N 33°46' W 118°13'0 0.0
2017-Aug-15 08:30N 33°46' W 118°13'0 0.0
2017-Aug-15 08:00N 33°46' W 118°13'0 0.0
2017-Aug-15 07:30N 33°46' W 118°13'0 0.0
2017-Aug-15 06:59N 33°46' W 118°13'0 0.0
2017-Aug-15 06:28N 33°46' W 118°13'0 0.0
2017-Aug-15 05:59N 33°46' W 118°13'0 0.0
2017-Aug-15 05:30N 33°46' W 118°13'0 0.0
2017-Aug-15 04:59N 33°46' W 118°13'0 0.0
2017-Aug-15 04:30N 33°46' W 118°13'0 0.0
2017-Aug-15 04:00N 33°46' W 118°13'0 0.0
2017-Aug-15 03:27N 33°46' W 118°13'0 0.0
2017-Aug-15 03:00N 33°46' W 118°13'0 0.0
2017-Aug-15 02:30N 33°46' W 118°13'0 0.0
2017-Aug-15 02:00N 33°46' W 118°13'0 0.0
2017-Aug-15 01:30N 33°46' W 118°13'0 0.0
2017-Aug-15 01:00N 33°46' W 118°13'0 0.0
2017-Aug-15 00:30N 33°46' W 118°13'0 0.0
2017-Aug-15 00:00N 33°46' W 118°13'0 0.0
2017-Aug-14 23:30N 33°46' W 118°13'0 0.0
2017-Aug-14 23:00N 33°46' W 118°13'0 0.0
2017-Aug-14 22:30N 33°46' W 118°13'0 0.0
2017-Aug-14 22:00N 33°46' W 118°13'0 0.0
2017-Aug-14 21:30N 33°46' W 118°13'0 0.0
2017-Aug-14 21:00N 33°46' W 118°13'0 0.0
2017-Aug-14 20:30N 33°46' W 118°13'0 0.0
2017-Aug-14 20:00N 33°46' W 118°13'0 0.0
2017-Aug-14 19:30N 33°46' W 118°13'0 0.0
2017-Aug-14 19:00N 33°46' W 118°13'0 0.0
2017-Aug-14 18:30N 33°46' W 118°13'0 0.0
2017-Aug-14 18:00N 33°46' W 118°13'0 0.0
2017-Aug-14 17:28N 33°46' W 118°13'0 0.0
2017-Aug-14 17:00N 33°46' W 118°13'0 0.0
2017-Aug-14 16:28N 33°46' W 118°13'0 0.0
2017-Aug-14 16:00N 33°46' W 118°13'0 0.0
2017-Aug-14 15:30N 33°46' W 118°13'0 0.0
2017-Aug-14 15:00N 33°46' W 118°13'0 0.0
2017-Aug-14 14:29N 33°46' W 118°13'0 0.0
2017-Aug-14 14:00N 33°46' W 118°13'0 0.0
2017-Aug-14 13:30N 33°46' W 118°13'0 0.0
2017-Aug-14 13:00N 33°46' W 118°13'0 0.0
2017-Aug-14 12:30N 33°46' W 118°13'0 0.0
2017-Aug-14 12:00N 33°46' W 118°13'0 0.0
2017-Aug-14 11:30N 33°46' W 118°13'0 0.0
2017-Aug-14 11:00N 33°46' W 118°13'0 0.0
2017-Aug-14 10:29N 33°46' W 118°13'0 0.0
2017-Aug-14 10:00N 33°46' W 118°13'0 0.0
2017-Aug-14 09:30N 33°46' W 118°13'0 0.0
2017-Aug-14 09:00N 33°46' W 118°13'0 0.0
2017-Aug-14 08:30N 33°46' W 118°13'0 0.0
2017-Aug-14 08:00N 33°46' W 118°13'0 0.0
2017-Aug-14 07:29N 33°46' W 118°13'0 0.0
2017-Aug-14 07:00N 33°46' W 118°13'0 0.0
2017-Aug-14 06:30N 33°46' W 118°13'0 0.0
2017-Aug-14 06:00N 33°46' W 118°13'0 0.0
2017-Aug-14 05:30N 33°46' W 118°13'0 0.0
2017-Aug-14 05:00N 33°46' W 118°13'0 0.0
2017-Aug-14 04:30N 33°46' W 118°13'0 0.0
2017-Aug-14 03:59N 33°46' W 118°13'0 0.0
2017-Aug-14 03:29N 33°46' W 118°13'0 0.0
2017-Aug-14 03:00N 33°46' W 118°13'0 0.0
2017-Aug-14 02:30N 33°46' W 118°13'0 0.0
2017-Aug-14 02:00N 33°46' W 118°13'0 0.0
2017-Aug-14 01:30N 33°46' W 118°13'0 0.0
2017-Aug-14 01:00N 33°46' W 118°13'0 0.0
2017-Aug-14 00:30N 33°46' W 118°13'0 0.0
2017-Aug-14 00:00N 33°46' W 118°13'0 0.0
2017-Aug-13 23:30N 33°46' W 118°13'0 0.0
2017-Aug-13 23:00N 33°46' W 118°13'0 0.0
2017-Aug-13 22:30N 33°46' W 118°13'0 0.0
2017-Aug-13 22:00N 33°46' W 118°13'0 0.0
2017-Aug-13 21:30N 33°46' W 118°13'0 0.0
2017-Aug-13 21:00N 33°46' W 118°13'0 0.0
2017-Aug-13 20:30N 33°46' W 118°13'0 0.0
2017-Aug-13 20:00N 33°46' W 118°13'0 0.0
2017-Aug-13 19:30N 33°46' W 118°13'0 0.0
2017-Aug-13 19:00N 33°46' W 118°13'0 0.0
2017-Aug-13 18:30N 33°46' W 118°13'0 0.0
2017-Aug-13 18:00N 33°46' W 118°13'0 0.0
2017-Aug-13 17:29N 33°46' W 118°13'0 0.0
2017-Aug-13 17:00N 33°46' W 118°13'0 0.0
2017-Aug-13 16:30N 33°46' W 118°13'0 0.0
2017-Aug-13 16:00N 33°46' W 118°13'0 0.0
2017-Aug-13 15:30N 33°46' W 118°13'0 0.0
2017-Aug-13 15:00N 33°46' W 118°13'0 0.0
2017-Aug-13 14:28N 33°46' W 118°13'0 0.0
2017-Aug-13 14:00N 33°46' W 118°13'0 0.0
2017-Aug-13 13:30N 33°46' W 118°13'0 0.0
2017-Aug-13 13:00N 33°46' W 118°13'0 0.0
2017-Aug-13 12:30N 33°46' W 118°13'0 0.0
2017-Aug-13 12:00N 33°46' W 118°13'0 0.0
2017-Aug-13 11:29N 33°46' W 118°13'0 0.0
2017-Aug-13 11:00N 33°46' W 118°13'0 0.0
2017-Aug-13 10:30N 33°46' W 118°13'0 0.0
2017-Aug-13 10:00N 33°46' W 118°13'0 0.0
2017-Aug-13 09:30N 33°46' W 118°13'0 0.0
2017-Aug-13 09:00N 33°46' W 118°13'0 0.0
2017-Aug-13 08:30N 33°46' W 118°13'0 0.0
2017-Aug-13 08:00N 33°46' W 118°13'0 0.0
2017-Aug-13 07:30N 33°46' W 118°13'0 0.0
2017-Aug-13 07:00N 33°46' W 118°13'0 0.0
2017-Aug-13 06:30N 33°46' W 118°13'0 0.0
2017-Aug-13 06:00N 33°46' W 118°13'0 0.0
2017-Aug-13 05:30N 33°46' W 118°13'0 0.0
2017-Aug-13 05:00N 33°46' W 118°13'0 0.0
2017-Aug-13 04:30N 33°46' W 118°13'0 0.0
2017-Aug-13 04:00N 33°46' W 118°13'0 0.0
2017-Aug-13 03:30N 33°46' W 118°13'0 0.0
2017-Aug-13 03:00N 33°46' W 118°13'0 0.0
2017-Aug-13 02:30N 33°46' W 118°13'0 0.0
2017-Aug-13 02:00N 33°46' W 118°13'0 0.0
2017-Aug-13 01:30N 33°46' W 118°13'0 0.0
2017-Aug-13 01:00N 33°46' W 118°13'0 0.0
2017-Aug-13 00:30N 33°46' W 118°13'0 0.0
2017-Aug-13 00:00N 33°46' W 118°13'1 1.1
2017-Aug-12 23:30N 33°45' W 118°13'1 1.9
2017-Aug-12 23:00N 33°45' W 118°13'1 1.6
2017-Aug-12 22:30N 33°45' W 118°13'1 2.2
2017-Aug-12 22:00N 33°44' W 118°13'1 2.4
2017-Aug-12 21:30N 33°43' W 118°11'0 0.4
2017-Aug-12 21:00N 33°44' W 118°11'2 3.4
2017-Aug-12 20:30N 33°45' W 118°13'1 2.5
2017-Aug-12 20:00N 33°46' W 118°13'0 0.0
2017-Aug-12 19:30N 33°46' W 118°13'0 0.0
2017-Aug-12 19:00N 33°46' W 118°13'0 0.0
2017-Aug-12 18:30N 33°46' W 118°13'0 0.0
2017-Aug-12 18:00N 33°46' W 118°13'0 0.0
2017-Aug-12 17:30N 33°46' W 118°13'0 0.0
2017-Aug-12 17:00N 33°46' W 118°13'0 0.0
2017-Aug-12 16:30N 33°46' W 118°13'0 0.0
2017-Aug-12 16:00N 33°46' W 118°13'0 0.0
2017-Aug-12 15:29N 33°46' W 118°13'0 0.0
2017-Aug-12 15:00N 33°46' W 118°13'0 0.0
2017-Aug-12 14:29N 33°46' W 118°13'0 0.0
2017-Aug-12 14:00N 33°46' W 118°13'0 0.0
2017-Aug-12 13:30N 33°46' W 118°13'0 0.0
2017-Aug-12 13:00N 33°46' W 118°13'0 0.0
2017-Aug-12 12:30N 33°46' W 118°13'0 0.0
2017-Aug-12 12:00N 33°46' W 118°13'0 0.0
2017-Aug-12 11:30N 33°46' W 118°13'0 0.0
2017-Aug-12 11:00N 33°46' W 118°13'0 0.0
2017-Aug-12 10:30N 33°46' W 118°13'0 0.0
2017-Aug-12 10:00N 33°46' W 118°13'0 0.0
2017-Aug-12 09:30N 33°46' W 118°13'0 0.0
2017-Aug-12 09:00N 33°46' W 118°13'0 0.0
2017-Aug-12 08:29N 33°46' W 118°13'0 0.0
2017-Aug-12 08:00N 33°46' W 118°13'0 0.0
2017-Aug-12 07:30N 33°46' W 118°13'0 0.0
2017-Aug-12 07:00N 33°46' W 118°13'0 0.0
2017-Aug-12 06:30N 33°46' W 118°13'0 0.0
2017-Aug-12 06:00N 33°46' W 118°13'0 0.0
2017-Aug-12 05:30N 33°46' W 118°13'0 0.0
2017-Aug-12 05:00N 33°46' W 118°13'0 0.0
2017-Aug-12 04:30N 33°46' W 118°13'0 0.0
2017-Aug-12 04:00N 33°46' W 118°13'0 0.0
2017-Aug-12 03:30N 33°46' W 118°13'0 0.0
2017-Aug-12 03:00N 33°46' W 118°13'0 0.0
2017-Aug-12 02:30N 33°46' W 118°13'0 0.0
2017-Aug-12 02:00N 33°46' W 118°13'0 0.0
2017-Aug-12 01:30N 33°46' W 118°13'0 0.0
2017-Aug-12 01:00N 33°46' W 118°13'0 0.0
2017-Aug-12 00:30N 33°46' W 118°13'0 0.0
2017-Aug-12 00:00N 33°46' W 118°13'0 0.0
2017-Aug-11 23:30N 33°46' W 118°13'0 0.0
2017-Aug-11 23:00N 33°46' W 118°13'0 0.0
2017-Aug-11 22:30N 33°46' W 118°13'0 0.0
2017-Aug-11 22:00N 33°46' W 118°13'0 0.0
2017-Aug-11 21:30N 33°46' W 118°13'0 0.0
2017-Aug-11 21:00N 33°46' W 118°13'0 0.0
2017-Aug-11 20:30N 33°46' W 118°13'0 0.0
2017-Aug-11 20:00N 33°46' W 118°13'0 0.0
2017-Aug-11 19:30N 33°46' W 118°13'0 0.0
2017-Aug-11 19:00N 33°46' W 118°13'0 0.0
2017-Aug-11 18:30N 33°46' W 118°13'0 0.0
2017-Aug-11 18:00N 33°46' W 118°13'0 0.0
2017-Aug-11 17:30N 33°46' W 118°13'0 0.0
2017-Aug-11 17:00N 33°46' W 118°13'0 0.0
2017-Aug-11 16:30N 33°46' W 118°13'0 0.0
2017-Aug-11 16:00N 33°46' W 118°13'0 0.0
2017-Aug-11 15:30N 33°46' W 118°13'0 0.0
2017-Aug-11 15:00N 33°46' W 118°13'0 0.0
2017-Aug-11 14:30N 33°46' W 118°13'0 0.0
2017-Aug-11 13:30N 33°46' W 118°13'0 0.0
2017-Aug-11 13:00N 33°46' W 118°13'0 0.0
2017-Aug-11 12:30N 33°46' W 118°13'0 0.0
2017-Aug-11 12:00N 33°46' W 118°13'0 0.0
2017-Aug-11 11:30N 33°46' W 118°13'0 0.0
2017-Aug-11 11:00N 33°46' W 118°13'0 0.0
2017-Aug-11 10:30N 33°46' W 118°13'0 0.0
2017-Aug-11 10:00N 33°46' W 118°13'0 0.0
2017-Aug-11 09:30N 33°46' W 118°13'0 0.0
2017-Aug-11 08:59N 33°46' W 118°13'0 0.0
2017-Aug-11 08:30N 33°46' W 118°13'0 0.0
2017-Aug-11 08:00N 33°46' W 118°13'0 0.0
2017-Aug-11 07:30N 33°46' W 118°13'0 0.0
2017-Aug-11 07:00N 33°46' W 118°13'0 0.0
2017-Aug-11 06:30N 33°46' W 118°13'0 0.0
2017-Aug-11 06:00N 33°46' W 118°13'0 0.0
2017-Aug-11 05:30N 33°46' W 118°13'0 0.0
2017-Aug-11 05:00N 33°46' W 118°13'0 0.0
2017-Aug-11 04:30N 33°46' W 118°13'0 0.0
2017-Aug-11 04:00N 33°46' W 118°13'0 0.0
2017-Aug-11 03:30N 33°46' W 118°13'0 0.0
2017-Aug-11 03:00N 33°46' W 118°13'0 0.0
2017-Aug-11 02:30N 33°46' W 118°13'0 0.0
2017-Aug-11 02:00N 33°46' W 118°13'0 0.0
2017-Aug-11 01:30N 33°46' W 118°13'0 0.0
2017-Aug-11 01:00N 33°46' W 118°13'0 0.0
2017-Aug-11 00:30N 33°46' W 118°13'0 0.0
2017-Aug-11 00:00N 33°46' W 118°13'0 0.0
2017-Aug-10 23:30N 33°46' W 118°13'0 0.0
2017-Aug-10 23:00N 33°46' W 118°13'0 0.0
2017-Aug-10 22:30N 33°46' W 118°13'0 0.0
2017-Aug-10 22:00N 33°46' W 118°13'0 0.0
2017-Aug-10 21:30N 33°46' W 118°13'0 0.0
2017-Aug-10 21:00N 33°46' W 118°13'0 0.0
2017-Aug-10 20:30N 33°46' W 118°13'0 0.0
2017-Aug-10 20:00N 33°46' W 118°13'0 0.0
2017-Aug-10 19:30N 33°46' W 118°13'0 0.0
2017-Aug-10 19:00N 33°46' W 118°13'0 0.0
2017-Aug-10 18:30N 33°46' W 118°13'0 0.0
2017-Aug-10 18:00N 33°46' W 118°13'0 0.0
2017-Aug-10 17:30N 33°46' W 118°13'0 0.0
2017-Aug-10 17:00N 33°46' W 118°13'0 0.0
2017-Aug-10 16:30N 33°46' W 118°13'0 0.0
2017-Aug-10 16:00N 33°46' W 118°13'0 0.0
2017-Aug-10 15:30N 33°46' W 118°13'0 0.0
2017-Aug-10 15:00N 33°46' W 118°13'0 0.0
2017-Aug-10 14:30N 33°46' W 118°13'0 0.0
2017-Aug-10 14:00N 33°46' W 118°13'0 0.0
2017-Aug-10 13:30N 33°46' W 118°13'0 0.0
2017-Aug-10 13:00N 33°46' W 118°13'0 0.0
2017-Aug-10 12:30N 33°46' W 118°13'0 0.0
2017-Aug-10 12:00N 33°46' W 118°13'0 0.0
2017-Aug-10 11:30N 33°46' W 118°13'0 0.0
2017-Aug-10 11:00N 33°46' W 118°13'0 0.0
2017-Aug-10 10:30N 33°46' W 118°13'0 0.0
2017-Aug-10 09:59N 33°46' W 118°13'0 0.0
2017-Aug-10 09:30N 33°46' W 118°13'0 0.0
2017-Aug-10 09:00N 33°46' W 118°13'0 0.0
2017-Aug-10 08:30N 33°46' W 118°13'0 0.0
2017-Aug-10 08:00N 33°46' W 118°13'0 0.0
2017-Aug-10 07:30N 33°46' W 118°13'0 0.0
2017-Aug-10 07:00N 33°46' W 118°13'0 0.0
2017-Aug-10 06:30N 33°46' W 118°13'0 0.0
2017-Aug-10 06:00N 33°46' W 118°13'0 0.0
2017-Aug-10 05:30N 33°46' W 118°13'0 0.0
2017-Aug-10 05:00N 33°46' W 118°13'0 0.0
2017-Aug-10 04:30N 33°46' W 118°13'0 0.0
2017-Aug-10 04:00N 33°46' W 118°13'0 0.0
2017-Aug-10 03:30N 33°46' W 118°13'0 0.0
2017-Aug-10 03:00N 33°46' W 118°13'0 0.0
2017-Aug-10 02:30N 33°46' W 118°13'0 0.0
2017-Aug-10 02:00N 33°46' W 118°13'0 0.0
2017-Aug-10 01:30N 33°46' W 118°13'0 0.0
2017-Aug-10 01:00N 33°46' W 118°13'0 0.0
2017-Aug-10 00:30N 33°46' W 118°13'0 0.0
2017-Aug-10 00:00N 33°46' W 118°13'0 0.0
2017-Aug-09 23:30N 33°46' W 118°13'0 0.0
2017-Aug-09 23:00N 33°46' W 118°13'0 0.0
2017-Aug-09 22:30N 33°46' W 118°13'0 0.0
2017-Aug-09 22:00N 33°46' W 118°13'0 0.0
2017-Aug-09 21:30N 33°46' W 118°13'0 0.0
2017-Aug-09 21:00N 33°46' W 118°13'0 0.0
2017-Aug-09 20:30N 33°46' W 118°13'0 0.0
2017-Aug-09 20:00N 33°46' W 118°13'0 0.0
2017-Aug-09 19:30N 33°46' W 118°13'0 0.0
2017-Aug-09 19:00N 33°46' W 118°13'0 0.0
2017-Aug-09 18:30N 33°46' W 118°13'0 0.0
2017-Aug-09 18:00N 33°46' W 118°13'0 0.0
2017-Aug-09 17:30N 33°46' W 118°13'0 0.3
2017-Aug-09 16:59N 33°46' W 118°13'3 6.7
2017-Aug-09 16:30N 33°44' W 118°10'1 1.0
2017-Aug-09 15:59N 33°44' W 118°11'2 4.9
2017-Aug-09 15:30N 33°45' W 118°13'1 2.1
2017-Aug-09 15:00N 33°46' W 118°13'0 0.0
2017-Aug-09 14:30N 33°46' W 118°13'0 0.0
2017-Aug-09 14:00N 33°46' W 118°13'0 0.0
2017-Aug-09 13:30N 33°46' W 118°13'0 0.0
2017-Aug-09 13:00N 33°46' W 118°13'0 0.0
2017-Aug-09 12:28N 33°46' W 118°13'0 0.0
2017-Aug-09 12:00N 33°46' W 118°13'0 0.0
2017-Aug-09 11:30N 33°46' W 118°13'0 0.0
2017-Aug-09 11:00N 33°46' W 118°13'0 0.0
2017-Aug-09 10:30N 33°46' W 118°13'0 0.0
2017-Aug-09 10:00N 33°46' W 118°13'0 0.0
2017-Aug-09 09:30N 33°46' W 118°13'0 0.0
2017-Aug-09 09:00N 33°46' W 118°13'0 0.0
2017-Aug-09 08:30N 33°46' W 118°13'0 0.0
2017-Aug-09 08:00N 33°46' W 118°13'0 0.0
2017-Aug-09 07:30N 33°46' W 118°13'0 0.0
2017-Aug-09 07:00N 33°46' W 118°13'0 0.0
2017-Aug-09 06:30N 33°46' W 118°13'0 0.0
2017-Aug-09 06:00N 33°46' W 118°13'0 0.0
2017-Aug-09 05:30N 33°46' W 118°13'0 0.0
2017-Aug-09 05:00N 33°46' W 118°13'0 0.0
2017-Aug-09 04:30N 33°46' W 118°13'0 0.0
2017-Aug-09 04:00N 33°46' W 118°13'0 0.0
2017-Aug-09 03:30N 33°46' W 118°13'0 0.0
2017-Aug-09 03:00N 33°46' W 118°13'0 0.0
2017-Aug-09 02:30N 33°46' W 118°13'0 0.0
2017-Aug-09 02:00N 33°46' W 118°13'0 0.0
2017-Aug-09 01:30N 33°46' W 118°13'0 0.0
2017-Aug-09 01:00N 33°46' W 118°13'  

Dump ship's entire track history